createdAt,value
2018-08-06T00:01:01.939Z,1.72
2018-08-06T00:03:30.951Z,1.30
2018-08-06T00:06:00.019Z,1.85
2018-08-06T00:08:29.320Z,1.72
2018-08-06T00:10:58.288Z,1.70
2018-08-06T00:13:27.149Z,1.82
2018-08-06T00:15:56.117Z,1.67
2018-08-06T00:18:25.924Z,1.82
2018-08-06T00:20:54.716Z,2.00
2018-08-06T00:23:23.556Z,1.37
2018-08-06T00:25:52.422Z,1.67
2018-08-06T00:28:21.375Z,1.50
2018-08-06T00:30:50.294Z,1.70
2018-08-06T00:33:19.121Z,1.40
2018-08-06T00:35:47.980Z,1.40
2018-08-06T00:38:16.798Z,1.65
2018-08-06T00:40:45.545Z,1.20
2018-08-06T00:43:14.360Z,1.70
2018-08-06T00:45:43.234Z,1.30
2018-08-06T00:48:12.065Z,1.52
2018-08-06T00:50:40.891Z,1.70
2018-08-06T00:53:09.730Z,1.67
2018-08-06T00:55:38.557Z,1.55
2018-08-06T00:58:07.521Z,1.40
2018-08-06T01:00:36.336Z,1.30
2018-08-06T01:03:05.150Z,1.35
2018-08-06T01:05:34.798Z,1.67
2018-08-06T01:08:03.635Z,1.30
2018-08-06T01:10:32.465Z,1.27
2018-08-06T01:13:01.321Z,1.20
2018-08-06T01:15:30.281Z,1.47
2018-08-06T01:17:59.147Z,1.20
2018-08-06T01:20:27.899Z,1.12
2018-08-06T01:22:56.714Z,1.55
2018-08-06T01:25:25.505Z,1.20
2018-08-06T01:27:54.303Z,1.10
2018-08-06T01:30:23.220Z,1.45
2018-08-06T01:32:52.022Z,1.27
2018-08-06T01:35:20.869Z,1.42
2018-08-06T01:37:49.643Z,1.60
2018-08-06T01:40:18.476Z,1.07
2018-08-06T01:42:47.547Z,1.22
2018-08-06T01:45:17.260Z,1.52
2018-08-06T01:47:46.468Z,1.17
2018-08-06T01:50:17.063Z,0.90
2018-08-06T01:52:46.616Z,1.30
2018-08-06T01:55:16.021Z,1.05
2018-08-06T01:57:44.951Z,1.10
2018-08-06T02:00:15.624Z,1.60
2018-08-06T02:02:44.447Z,1.10
2018-08-06T02:05:13.343Z,1.35
2018-08-06T02:07:42.277Z,1.35
2018-08-06T02:10:14.133Z,1.07
2018-08-06T02:12:43.786Z,1.30
2018-08-06T02:15:13.179Z,1.12
2018-08-06T02:17:42.084Z,0.80
2018-08-06T02:20:13.470Z,1.27
2018-08-06T02:22:42.336Z,1.00
2018-08-06T02:25:11.705Z,0.90
2018-08-06T02:27:40.710Z,1.10
2018-08-06T02:30:14.536Z,1.20
2018-08-06T02:32:43.363Z,1.02
2018-08-06T02:35:13.997Z,1.20
2018-08-06T02:37:43.258Z,1.20
2018-08-06T02:40:14.902Z,0.88
2018-08-06T02:42:43.723Z,1.10
2018-08-06T02:45:12.485Z,0.98
2018-08-06T02:47:41.340Z,0.80
2018-08-06T02:50:11.381Z,0.90
2018-08-06T02:52:41.101Z,0.90
2018-08-06T02:55:11.704Z,0.90
2018-08-06T02:57:40.538Z,0.98
2018-08-06T03:00:11.713Z,0.90
2018-08-06T03:02:41.167Z,1.00
2018-08-06T03:05:12.440Z,0.80
2018-08-06T03:07:41.906Z,0.90
2018-08-06T03:10:10.919Z,0.78
2018-08-06T03:12:39.760Z,0.70
2018-08-06T03:15:09.822Z,1.00
2018-08-06T03:17:39.012Z,0.90
2018-08-06T03:20:08.758Z,0.90
2018-08-06T03:22:38.162Z,0.60
2018-08-06T03:25:09.024Z,1.02
2018-08-06T03:27:37.948Z,0.60
2018-08-06T03:30:09.042Z,1.00
2018-08-06T03:32:38.181Z,0.90
2018-08-06T03:35:08.522Z,0.90
2018-08-06T03:37:37.308Z,0.75
2018-08-06T03:40:06.481Z,1.20
2018-08-06T03:42:35.193Z,0.98
2018-08-06T03:45:04.197Z,0.82
2018-08-06T03:47:33.016Z,1.10
2018-08-06T03:50:01.758Z,0.90
2018-08-06T03:52:30.559Z,0.80
2018-08-06T03:54:59.341Z,1.10
2018-08-06T03:57:28.199Z,0.80
2018-08-06T03:59:56.961Z,0.90
2018-08-06T04:02:25.687Z,1.00
2018-08-06T04:04:54.442Z,0.98
2018-08-06T04:07:23.202Z,0.78
2018-08-06T04:09:51.943Z,0.80
2018-08-06T04:12:20.709Z,0.88
2018-08-06T04:14:49.442Z,0.78
2018-08-06T04:17:18.197Z,0.90
2018-08-06T04:19:47.048Z,0.72
2018-08-06T04:22:15.877Z,1.05
2018-08-06T04:24:44.709Z,0.95
2018-08-06T04:27:13.453Z,0.68
2018-08-06T04:29:42.192Z,0.90
2018-08-06T04:32:11.001Z,0.78
2018-08-06T04:34:39.718Z,0.60
2018-08-06T04:37:08.485Z,0.85
2018-08-06T04:39:37.218Z,0.50
2018-08-06T04:42:06.129Z,0.50
2018-08-06T04:44:34.950Z,0.85
2018-08-06T04:47:03.800Z,0.80
2018-08-06T04:49:32.529Z,0.50
2018-08-06T04:52:01.343Z,0.68
2018-08-06T04:54:30.204Z,0.55
2018-08-06T04:56:59.022Z,0.70
2018-08-06T04:59:27.858Z,0.70
2018-08-06T05:01:56.636Z,0.40
2018-08-06T05:04:25.399Z,0.55
2018-08-06T05:06:54.153Z,0.90
2018-08-06T05:09:25.008Z,0.60
2018-08-06T05:11:53.819Z,0.68
2018-08-06T05:14:22.586Z,0.78
2018-08-06T05:16:51.375Z,0.60
2018-08-06T05:19:20.167Z,0.60
2018-08-06T05:21:49.131Z,0.70
2018-08-06T05:24:18.011Z,0.60
2018-08-06T05:26:46.873Z,0.78
2018-08-06T05:29:15.623Z,0.50
2018-08-06T05:31:44.508Z,0.40
2018-08-06T05:34:13.248Z,0.40
2018-08-06T05:36:42.029Z,0.55
2018-08-06T05:39:10.777Z,0.53
2018-08-06T05:41:39.822Z,0.50
2018-08-06T05:44:08.620Z,0.45
2018-08-06T05:46:37.356Z,0.50
2018-08-06T05:49:06.247Z,0.70
2018-08-06T05:51:35.043Z,0.42
2018-08-06T05:54:04.017Z,0.55
2018-08-06T05:56:32.772Z,0.55
2018-08-06T05:59:01.746Z,0.50
2018-08-06T06:01:30.564Z,0.40
2018-08-06T06:03:59.368Z,0.40
2018-08-06T06:06:28.223Z,0.30
2018-08-06T06:08:57.027Z,0.50
2018-08-06T06:11:25.812Z,0.60
2018-08-06T06:13:54.683Z,0.40
2018-08-06T06:16:23.561Z,0.60
2018-08-06T06:18:52.355Z,0.60
2018-08-06T06:21:21.463Z,0.45
2018-08-06T06:23:50.178Z,0.50
2018-08-06T06:26:18.981Z,0.37
2018-08-06T06:28:47.779Z,0.40
2018-08-06T06:31:16.723Z,0.33
2018-08-06T06:33:45.562Z,0.40
2018-08-06T06:36:14.335Z,0.40
2018-08-06T06:38:43.118Z,0.40
2018-08-06T06:41:11.951Z,0.40
2018-08-06T06:43:40.876Z,0.50
2018-08-06T06:46:09.744Z,0.35
2018-08-06T06:48:38.509Z,0.30
2018-08-06T06:51:07.295Z,0.40
2018-08-06T06:53:36.052Z,0.47
2018-08-06T06:56:05.043Z,0.50
2018-08-06T06:58:33.970Z,0.20
2018-08-06T07:01:02.777Z,0.45
2018-08-06T07:03:31.614Z,0.40
2018-08-06T07:06:00.478Z,0.45
2018-08-06T07:08:29.285Z,0.60
2018-08-06T07:10:58.109Z,0.53
2018-08-06T07:13:26.937Z,0.30
2018-08-06T07:15:55.789Z,0.40
2018-08-06T07:18:24.586Z,0.33
2018-08-06T07:20:53.453Z,0.37
2018-08-06T07:23:22.288Z,0.55
2018-08-06T07:25:51.176Z,0.40
2018-08-06T07:28:19.947Z,0.62
2018-08-06T07:30:48.700Z,0.33
2018-08-06T07:33:17.468Z,0.40
2018-08-06T07:35:46.294Z,0.50
2018-08-06T07:38:15.043Z,0.50
2018-08-06T07:40:43.850Z,0.40
2018-08-06T07:43:12.659Z,0.45
2018-08-06T07:45:41.462Z,0.40
2018-08-06T07:48:10.252Z,0.30
2018-08-06T07:50:39.016Z,0.45
2018-08-06T07:53:08.388Z,0.50
2018-08-06T07:55:37.301Z,0.55
2018-08-06T07:58:06.276Z,0.45
2018-08-06T08:00:35.084Z,0.47
2018-08-06T08:03:03.855Z,0.50
2018-08-06T08:05:33.904Z,0.40
2018-08-06T08:08:02.767Z,0.47
2018-08-06T08:10:31.753Z,0.57
2018-08-06T08:13:00.565Z,0.70
2018-08-06T08:15:29.376Z,0.60
2018-08-06T08:17:58.554Z,0.60
2018-08-06T08:20:27.476Z,0.68
2018-08-06T08:22:56.436Z,0.80
2018-08-06T08:25:25.218Z,0.60
2018-08-06T08:27:54.063Z,0.53
2018-08-06T08:30:22.966Z,0.72
2018-08-06T08:32:51.807Z,0.50
2018-08-06T08:35:20.635Z,0.40
2018-08-06T08:37:49.538Z,0.60
2018-08-06T08:40:19.760Z,0.55
2018-08-06T08:42:48.600Z,0.42
2018-08-06T08:45:18.413Z,0.65
2018-08-06T08:47:47.349Z,0.80
2018-08-06T08:50:17.818Z,0.60
2018-08-06T08:52:46.646Z,0.80
2018-08-06T08:55:16.793Z,0.80
2018-08-06T08:57:45.988Z,0.85
2018-08-06T09:00:17.844Z,0.72
2018-08-06T09:02:47.685Z,0.72
2018-08-06T09:05:17.194Z,0.90
2018-08-06T09:07:46.230Z,1.00
2018-08-06T09:10:16.198Z,0.93
2018-08-06T09:12:45.108Z,0.88
2018-08-06T09:15:25.286Z,1.00
2018-08-06T09:17:54.153Z,0.88
2018-08-06T09:20:23.934Z,0.80
2018-08-06T09:22:52.798Z,1.25
2018-08-06T09:25:21.662Z,0.78
2018-08-06T09:27:51.533Z,1.17
2018-08-06T09:30:21.712Z,1.00
2018-08-06T09:32:53.011Z,0.95
2018-08-06T09:35:22.201Z,1.25
2018-08-06T09:37:51.130Z,0.95
2018-08-06T09:40:21.130Z,0.90
2018-08-06T09:42:50.506Z,1.05
2018-08-06T09:45:20.663Z,0.80
2018-08-06T09:47:50.950Z,1.10
2018-08-06T09:50:20.619Z,0.72
2018-08-06T09:52:50.576Z,1.10
2018-08-06T09:55:21.909Z,0.90
2018-08-06T09:57:51.064Z,0.95
2018-08-06T10:00:26.956Z,0.85
2018-08-06T10:02:57.126Z,1.20
2018-08-06T10:05:26.713Z,1.10
2018-08-06T10:07:55.537Z,1.10
2018-08-06T10:10:24.385Z,1.40
2018-08-06T10:12:53.267Z,1.00
2018-08-06T10:15:22.607Z,1.32
2018-08-06T10:17:53.729Z,1.62
2018-08-06T10:20:23.914Z,1.50
2018-08-06T10:22:52.713Z,1.60
2018-08-06T10:25:21.607Z,1.50
2018-08-06T10:27:50.385Z,1.60
2018-08-06T10:30:22.170Z,1.30
2018-08-06T10:32:50.945Z,1.40
2018-08-06T10:35:20.463Z,1.22
2018-08-06T10:37:49.236Z,1.22
2018-08-06T10:40:20.343Z,1.42
2018-08-06T10:42:49.168Z,1.15
2018-08-06T10:45:19.151Z,0.90
2018-08-06T10:47:48.234Z,1.17
2018-08-06T10:50:17.211Z,1.10
2018-08-06T10:52:45.952Z,1.25
2018-08-06T10:55:14.849Z,1.40
2018-08-06T10:57:44.969Z,0.95
2018-08-06T11:00:17.171Z,1.40
2018-08-06T11:02:46.211Z,1.17
2018-08-06T11:05:15.915Z,1.35
2018-08-06T11:07:44.858Z,1.30
2018-08-06T11:10:15.194Z,0.98
2018-08-06T11:12:44.150Z,1.32
2018-08-06T11:15:17.150Z,1.10
2018-08-06T11:17:46.229Z,1.07
2018-08-06T11:20:16.197Z,1.27
2018-08-06T11:22:45.155Z,1.22
2018-08-06T11:25:16.695Z,0.93
2018-08-06T11:27:45.680Z,0.98
2018-08-06T11:30:16.625Z,1.30
2018-08-06T11:32:46.003Z,1.00
2018-08-06T11:35:15.436Z,1.05
2018-08-06T11:37:44.344Z,1.15
2018-08-06T11:40:14.513Z,1.00
2018-08-06T11:42:44.098Z,0.60
2018-08-06T11:45:15.218Z,0.90
2018-08-06T11:47:44.061Z,0.80
2018-08-06T11:50:12.947Z,1.10
2018-08-06T11:52:41.908Z,0.50
2018-08-06T11:55:11.161Z,0.70
2018-08-06T11:57:40.980Z,0.78
2018-08-06T12:00:13.851Z,0.70
2018-08-06T12:02:42.744Z,0.80
2018-08-06T12:05:11.615Z,0.72
2018-08-06T12:07:40.604Z,1.00
2018-08-06T12:10:14.428Z,0.80
2018-08-06T12:12:44.335Z,0.82
2018-08-06T12:15:13.328Z,0.60
2018-08-06T12:17:42.546Z,0.68
2018-08-06T12:20:13.178Z,0.78
2018-08-06T12:22:43.332Z,0.80
2018-08-06T12:25:13.110Z,0.80
2018-08-06T12:27:42.324Z,0.95
2018-08-06T12:30:16.040Z,0.80
2018-08-06T12:32:45.739Z,0.98
2018-08-06T12:35:14.992Z,1.20
2018-08-06T12:37:44.004Z,1.20
2018-08-06T12:40:15.023Z,0.80
2018-08-06T12:42:44.065Z,1.20
2018-08-06T12:45:14.002Z,1.00
2018-08-06T12:47:43.258Z,1.90
2018-08-06T12:50:13.289Z,1.57
2018-08-06T12:52:42.838Z,2.37
2018-08-06T12:55:13.870Z,2.00
2018-08-06T12:57:43.323Z,1.98
2018-08-06T13:00:25.036Z,2.10
2018-08-06T13:02:54.230Z,1.80
2018-08-06T13:05:23.962Z,1.77
2018-08-06T13:07:52.929Z,1.27
2018-08-06T13:10:21.838Z,1.87
2018-08-06T13:12:50.671Z,1.50
2018-08-06T13:15:19.506Z,1.70
2018-08-06T13:17:48.393Z,1.37
2018-08-06T13:20:17.290Z,1.32
2018-08-06T13:22:46.134Z,1.62
2018-08-06T13:25:14.994Z,1.40
2018-08-06T13:27:43.945Z,1.32
2018-08-06T13:30:14.805Z,1.55
2018-08-06T13:32:44.330Z,1.10
2018-08-06T13:35:14.285Z,1.10
2018-08-06T13:37:43.246Z,1.17
2018-08-06T13:40:12.603Z,1.40
2018-08-06T13:42:41.413Z,1.37
2018-08-06T13:45:12.254Z,1.12
2018-08-06T13:47:41.290Z,0.90
2018-08-06T13:50:10.792Z,1.20
2018-08-06T13:52:39.650Z,1.40
2018-08-06T13:55:09.977Z,1.10
2018-08-06T13:57:39.051Z,1.22
2018-08-06T14:00:12.268Z,1.35
2018-08-06T14:02:41.152Z,1.30
2018-08-06T14:05:11.659Z,1.30
2018-08-06T14:07:40.518Z,1.30
2018-08-06T14:10:10.188Z,1.10
2018-08-06T14:12:39.470Z,1.17
2018-08-06T14:15:09.911Z,1.02
2018-08-06T14:17:39.397Z,1.27
2018-08-06T14:20:09.215Z,1.20
2018-08-06T14:22:38.671Z,1.80
2018-08-06T14:25:08.639Z,1.35
2018-08-06T14:27:37.650Z,1.47
2018-08-06T14:30:09.481Z,1.47
2018-08-06T14:32:38.314Z,1.57
2018-08-06T14:35:07.382Z,1.27
2018-08-06T14:37:36.251Z,1.40
2018-08-06T14:40:06.346Z,1.35
2018-08-06T14:42:35.131Z,1.47
2018-08-06T14:45:04.441Z,1.52
2018-08-06T14:47:33.236Z,1.40
2018-08-06T14:50:02.091Z,1.22
2018-08-06T14:52:30.911Z,1.25
2018-08-06T14:54:59.766Z,1.27
2018-08-06T14:57:32.352Z,1.00
2018-08-06T15:00:01.251Z,1.22
2018-08-06T15:02:30.129Z,1.42
2018-08-06T15:04:58.921Z,1.00
2018-08-06T15:07:27.777Z,1.55
2018-08-06T15:09:56.719Z,1.30
2018-08-06T15:12:25.619Z,1.10
2018-08-06T15:14:54.399Z,1.07
2018-08-06T15:17:23.240Z,1.17
2018-08-06T15:19:52.063Z,0.93
2018-08-06T15:22:20.970Z,1.22
2018-08-06T15:24:49.813Z,0.90
2018-08-06T15:27:18.763Z,1.10
2018-08-06T15:29:47.603Z,1.10
2018-08-06T15:32:16.378Z,1.25
2018-08-06T15:34:45.175Z,1.00
2018-08-06T15:37:14.038Z,1.25
2018-08-06T15:39:43.172Z,1.10
2018-08-06T15:42:11.984Z,1.12
2018-08-06T15:44:40.852Z,0.90
2018-08-06T15:47:10.282Z,0.88
2018-08-06T15:49:39.134Z,1.00
2018-08-06T15:52:07.953Z,1.00
2018-08-06T15:54:36.826Z,0.93
2018-08-06T15:57:05.631Z,0.85
2018-08-06T15:59:34.415Z,1.00
2018-08-06T16:02:03.623Z,1.20
2018-08-06T16:04:32.471Z,1.32
2018-08-06T16:07:01.302Z,1.17
2018-08-06T16:09:30.124Z,0.90
2018-08-06T16:11:59.051Z,1.07
2018-08-06T16:14:27.853Z,1.20
2018-08-06T16:16:56.692Z,1.25
2018-08-06T16:19:25.736Z,0.80
2018-08-06T16:21:54.550Z,1.00
2018-08-06T16:24:23.377Z,0.70
2018-08-06T16:26:52.493Z,0.90
2018-08-06T16:29:21.459Z,0.90
2018-08-06T16:31:50.386Z,0.85
2018-08-06T16:34:19.349Z,0.93
2018-08-06T16:36:48.171Z,0.95
2018-08-06T16:39:17.132Z,0.80
2018-08-06T16:41:45.980Z,1.22
2018-08-06T16:44:14.877Z,1.42
2018-08-06T16:46:43.827Z,1.52
2018-08-06T16:49:12.672Z,1.27
2018-08-06T16:51:41.506Z,0.98
2018-08-06T16:54:10.308Z,1.07
2018-08-06T16:56:39.144Z,1.47
2018-08-06T16:59:08.567Z,0.93
2018-08-06T17:01:37.639Z,1.20
2018-08-06T17:04:06.513Z,1.30
2018-08-06T17:06:35.392Z,1.70
2018-08-06T17:09:06.036Z,1.80
2018-08-06T17:11:34.853Z,1.27
2018-08-06T17:14:03.807Z,1.10
2018-08-06T17:16:32.787Z,1.07
2018-08-06T17:19:01.616Z,1.45
2018-08-06T17:21:30.544Z,1.30
2018-08-06T17:23:59.659Z,1.20
2018-08-06T17:26:28.911Z,1.07
2018-08-06T17:29:03.764Z,1.02
2018-08-06T17:31:32.659Z,1.10
2018-08-06T17:34:01.511Z,1.40
2018-08-06T17:36:30.452Z,1.00
2018-08-06T17:38:59.262Z,0.90
2018-08-06T17:41:28.754Z,1.35
2018-08-06T17:43:57.867Z,1.10
2018-08-06T17:46:27.238Z,1.30
2018-08-06T17:48:56.243Z,1.35
2018-08-06T17:51:25.621Z,1.27
2018-08-06T17:53:54.426Z,0.90
2018-08-06T17:56:23.228Z,0.93
2018-08-06T17:58:52.055Z,1.27
2018-08-06T18:01:20.843Z,1.02
2018-08-06T18:03:49.703Z,1.00
2018-08-06T18:06:18.514Z,1.17
2018-08-06T18:08:47.420Z,1.12
2018-08-06T18:11:17.182Z,1.00
2018-08-06T18:13:45.979Z,1.10
2018-08-06T18:16:14.954Z,0.90
2018-08-06T18:18:44.041Z,1.10
2018-08-06T18:21:12.888Z,1.02
2018-08-06T18:23:41.780Z,1.70
2018-08-06T18:26:10.639Z,1.27
2018-08-06T18:28:41.013Z,1.50
2018-08-06T18:31:11.515Z,1.57
2018-08-06T18:33:40.436Z,1.40
2018-08-06T18:36:09.905Z,1.10
2018-08-06T18:38:38.785Z,1.25
2018-08-06T18:41:07.674Z,1.50
2018-08-06T18:43:39.652Z,1.98
2018-08-06T18:46:08.525Z,1.40
2018-08-06T18:48:37.659Z,1.65
2018-08-06T18:51:06.544Z,1.65
2018-08-06T18:53:35.487Z,1.50
2018-08-06T18:56:04.439Z,1.30
2018-08-06T18:58:33.333Z,1.50
2018-08-06T19:01:02.210Z,1.30
2018-08-06T19:03:33.731Z,1.72
2018-08-06T19:06:02.987Z,1.05
2018-08-06T19:08:33.910Z,1.40
2018-08-06T19:11:02.993Z,1.25
2018-08-06T19:13:37.261Z,1.10
2018-08-06T19:16:11.568Z,1.40
2018-08-06T19:18:45.617Z,1.40
2018-08-06T19:21:14.520Z,1.35
2018-08-06T19:23:43.943Z,1.52
2018-08-06T19:26:12.902Z,1.12
2018-08-06T19:28:41.758Z,1.67
2018-08-06T19:31:16.006Z,1.50
2018-08-06T19:33:44.897Z,1.20
2018-08-06T19:36:13.743Z,1.37
2018-08-06T19:38:42.577Z,1.22
2018-08-06T19:41:11.438Z,1.60
2018-08-06T19:43:40.426Z,1.90
2018-08-06T19:46:09.967Z,2.00
2018-08-06T19:48:38.809Z,2.50
2018-08-06T19:51:07.663Z,2.22
2018-08-06T19:53:36.625Z,1.55
2018-08-06T19:56:11.043Z,1.90
2018-08-06T19:58:39.894Z,1.80
2018-08-06T20:01:08.753Z,1.40
2018-08-06T20:03:37.706Z,2.08
2018-08-06T20:06:08.155Z,2.00
2018-08-06T20:08:37.050Z,1.67
2018-08-06T20:11:06.401Z,1.90
2018-08-06T20:13:35.403Z,2.70
2018-08-06T20:16:04.476Z,1.77
2018-08-06T20:18:33.420Z,2.10
2018-08-06T20:21:02.259Z,2.10
2018-08-06T20:23:31.787Z,1.75
2018-08-06T20:26:00.760Z,1.82
2018-08-06T20:28:29.707Z,1.87
2018-08-06T20:30:59.551Z,1.62
2018-08-06T20:33:28.449Z,1.77
2018-08-06T20:35:58.201Z,1.47
2018-08-06T20:38:27.117Z,1.72
2018-08-06T20:40:56.000Z,1.70
2018-08-06T20:43:25.246Z,1.67
2018-08-06T20:45:54.521Z,1.32
2018-08-06T20:48:23.425Z,1.35
2018-08-06T20:50:52.967Z,1.35
2018-08-06T20:53:21.911Z,1.50
2018-08-06T20:55:50.881Z,1.30
2018-08-06T20:58:20.188Z,1.22
2018-08-06T21:00:49.330Z,1.30
2018-08-06T21:03:18.217Z,1.12
2018-08-06T21:05:47.071Z,1.37
2018-08-06T21:08:15.999Z,1.40
2018-08-06T21:10:44.914Z,1.40
2018-08-06T21:13:13.778Z,1.20
2018-08-06T21:15:42.603Z,1.00
2018-08-06T21:18:11.474Z,1.30
2018-08-06T21:20:40.333Z,1.25
2018-08-06T21:23:09.195Z,1.10
2018-08-06T21:25:38.421Z,1.32
2018-08-06T21:28:07.321Z,1.12
2018-08-06T21:30:36.165Z,1.00
2018-08-06T21:33:05.161Z,0.90
2018-08-06T21:35:33.980Z,1.02
2018-08-06T21:38:02.892Z,1.05
2018-08-06T21:40:31.708Z,1.00
2018-08-06T21:43:01.516Z,1.12
2018-08-06T21:45:30.339Z,1.20
2018-08-06T21:47:59.102Z,1.10
2018-08-06T21:50:27.972Z,1.40
2018-08-06T21:52:56.829Z,1.00
2018-08-06T21:55:25.682Z,1.20
2018-08-06T21:57:55.425Z,0.90
2018-08-06T22:00:36.554Z,1.00
2018-08-06T22:03:13.813Z,1.05
2018-08-06T22:05:42.991Z,0.88
2018-08-06T22:08:11.900Z,0.80
2018-08-06T22:10:40.817Z,0.80
2018-08-06T22:13:10.497Z,1.00
2018-08-06T22:15:39.924Z,0.68
2018-08-06T22:18:10.356Z,0.80
2018-08-06T22:20:39.286Z,1.00
2018-08-06T22:23:08.707Z,1.02
2018-08-06T22:25:37.781Z,0.80
2018-08-06T22:28:08.056Z,0.93
2018-08-06T22:30:36.992Z,1.02
2018-08-06T22:33:06.141Z,1.00
2018-08-06T22:35:35.085Z,0.90
2018-08-06T22:38:04.040Z,1.10
2018-08-06T22:40:32.907Z,1.00
2018-08-06T22:43:01.741Z,0.80
2018-08-06T22:45:30.594Z,0.80
2018-08-06T22:47:59.386Z,0.70
2018-08-06T22:50:28.373Z,0.85
2018-08-06T22:52:57.518Z,0.80
2018-08-06T22:55:26.462Z,0.85
2018-08-06T22:57:55.270Z,0.65
2018-08-06T23:00:24.130Z,0.57
2018-08-06T23:02:53.059Z,0.68
2018-08-06T23:05:21.856Z,0.88
2018-08-06T23:07:50.686Z,0.70
2018-08-06T23:10:19.599Z,1.02
2018-08-06T23:12:48.497Z,0.75
2018-08-06T23:15:17.742Z,0.80
2018-08-06T23:17:46.734Z,0.80
2018-08-06T23:20:15.658Z,0.60
2018-08-06T23:22:44.524Z,0.70
2018-08-06T23:25:13.325Z,0.68
2018-08-06T23:27:42.117Z,0.65
2018-08-06T23:30:13.993Z,0.75
2018-08-06T23:32:43.215Z,1.00
2018-08-06T23:35:13.247Z,0.70
2018-08-06T23:37:43.164Z,0.55
2018-08-06T23:40:12.854Z,0.50
2018-08-06T23:42:42.255Z,0.62
2018-08-06T23:45:12.226Z,1.00
2018-08-06T23:47:41.566Z,0.90
2018-08-06T23:50:12.414Z,0.62
2018-08-06T23:52:42.662Z,0.85
2018-08-06T23:55:13.083Z,0.70
2018-08-06T23:57:42.360Z,0.70
